sensor_id;sensor_type;location;lat;lon;timestamp;P1;durP1;ratioP1;P2;durP2;ratioP2
53977;SDS011;39886;47.984;-1.586;2023-06-10T00:02:03;2.53;;;2.10;;
53977;SDS011;39886;47.984;-1.586;2023-06-10T00:04:29;2.10;;;1.88;;
53977;SDS011;39886;47.984;-1.586;2023-06-10T00:06:55;2.97;;;2.05;;
53977;SDS011;39886;47.984;-1.586;2023-06-10T00:09:20;3.72;;;2.15;;
53977;SDS011;39886;47.984;-1.586;2023-06-10T00:11:46;2.38;;;2.17;;
53977;SDS011;39886;47.984;-1.586;2023-06-10T00:14:12;2.40;;;2.00;;
53977;SDS011;39886;47.984;-1.586;2023-06-10T00:16:38;2.20;;;2.00;;
53977;SDS011;39886;47.984;-1.586;2023-06-10T00:19:04;2.33;;;1.80;;
53977;SDS011;39886;47.984;-1.586;2023-06-10T00:21:30;3.30;;;2.33;;
53977;SDS011;39886;47.984;-1.586;2023-06-10T00:24:04;2.43;;;2.23;;
53977;SDS011;39886;47.984;-1.586;2023-06-10T00:26:31;2.72;;;2.15;;
53977;SDS011;39886;47.984;-1.586;2023-06-10T00:28:58;2.28;;;2.08;;
53977;SDS011;39886;47.984;-1.586;2023-06-10T00:31:27;2.53;;;1.90;;
53977;SDS011;39886;47.984;-1.586;2023-06-10T00:33:52;2.03;;;1.90;;
53977;SDS011;39886;47.984;-1.586;2023-06-10T00:36:18;2.47;;;2.15;;
53977;SDS011;39886;47.984;-1.586;2023-06-10T00:38:44;2.10;;;1.90;;
53977;SDS011;39886;47.984;-1.586;2023-06-10T00:41:10;2.38;;;1.98;;
53977;SDS011;39886;47.984;-1.586;2023-06-10T00:43:36;1.95;;;1.77;;
53977;SDS011;39886;47.984;-1.586;2023-06-10T00:46:01;2.20;;;1.90;;
53977;SDS011;39886;47.984;-1.586;2023-06-10T00:48:27;2.22;;;2.03;;
53977;SDS011;39886;47.984;-1.586;2023-06-10T00:50:53;2.05;;;1.85;;
53977;SDS011;39886;47.984;-1.586;2023-06-10T00:53:19;2.30;;;1.80;;
53977;SDS011;39886;47.984;-1.586;2023-06-10T00:55:47;2.58;;;1.83;;
53977;SDS011;39886;47.984;-1.586;2023-06-10T00:58:13;2.45;;;2.25;;
53977;SDS011;39886;47.984;-1.586;2023-06-10T01:00:40;2.35;;;2.15;;
53977;SDS011;39886;47.984;-1.586;2023-06-10T01:03:06;2.22;;;1.80;;
53977;SDS011;39886;47.984;-1.586;2023-06-10T01:05:33;2.78;;;2.25;;
53977;SDS011;39886;47.984;-1.586;2023-06-10T01:08:03;3.05;;;2.00;;
53977;SDS011;39886;47.984;-1.586;2023-06-10T01:13:26;2.58;;;1.83;;
53977;SDS011;39886;47.984;-1.586;2023-06-10T01:15:54;2.55;;;2.20;;
53977;SDS011;39886;47.984;-1.586;2023-06-10T01:18:21;2.35;;;1.95;;
53977;SDS011;39886;47.984;-1.586;2023-06-10T01:20:47;2.15;;;1.90;;
53977;SDS011;39886;47.984;-1.586;2023-06-10T01:23:13;2.50;;;1.90;;
53977;SDS011;39886;47.984;-1.586;2023-06-10T01:25:41;2.63;;;2.05;;
53977;SDS011;39886;47.984;-1.586;2023-06-10T01:28:25;1.80;;;1.70;;
53977;SDS011;39886;47.984;-1.586;2023-06-10T01:31:13;1.80;;;1.70;;
53977;SDS011;39886;47.984;-1.586;2023-06-10T01:33:45;2.70;;;2.20;;
53977;SDS011;39886;47.984;-1.586;2023-06-10T01:36:13;2.17;;;1.95;;
53977;SDS011;39886;47.984;-1.586;2023-06-10T01:38:44;2.25;;;1.98;;
53977;SDS011;39886;47.984;-1.586;2023-06-10T01:41:12;2.17;;;1.90;;
53977;SDS011;39886;47.984;-1.586;2023-06-10T01:43:40;2.20;;;2.00;;
53977;SDS011;39886;47.984;-1.586;2023-06-10T01:46:08;2.53;;;1.80;;
53977;SDS011;39886;47.984;-1.586;2023-06-10T01:48:34;1.98;;;1.88;;
53977;SDS011;39886;47.984;-1.586;2023-06-10T01:51:00;2.72;;;2.20;;
53977;SDS011;39886;47.984;-1.586;2023-06-10T01:53:26;1.90;;;1.75;;
53977;SDS011;39886;47.984;-1.586;2023-06-10T01:55:52;1.75;;;1.65;;
53977;SDS011;39886;47.984;-1.586;2023-06-10T01:58:17;2.47;;;2.10;;
53977;SDS011;39886;47.984;-1.586;2023-06-10T02:00:43;2.00;;;1.77;;
53977;SDS011;39886;47.984;-1.586;2023-06-10T02:03:09;2.78;;;2.20;;
53977;SDS011;39886;47.984;-1.586;2023-06-10T02:05:34;1.92;;;1.80;;
53977;SDS011;39886;47.984;-1.586;2023-06-10T02:08:00;2.22;;;2.03;;
53977;SDS011;39886;47.984;-1.586;2023-06-10T02:10:26;2.25;;;2.05;;
53977;SDS011;39886;47.984;-1.586;2023-06-10T02:12:52;2.22;;;1.83;;
53977;SDS011;39886;47.984;-1.586;2023-06-10T02:15:18;2.13;;;1.95;;
53977;SDS011;39886;47.984;-1.586;2023-06-10T02:17:43;2.25;;;1.98;;
53977;SDS011;39886;47.984;-1.586;2023-06-10T02:20:14;2.65;;;2.10;;
53977;SDS011;39886;47.984;-1.586;2023-06-10T02:22:39;2.20;;;1.88;;
53977;SDS011;39886;47.984;-1.586;2023-06-10T02:25:05;2.13;;;1.90;;
53977;SDS011;39886;47.984;-1.586;2023-06-10T02:27:31;2.33;;;2.00;;
53977;SDS011;39886;47.984;-1.586;2023-06-10T02:29:57;2.10;;;1.90;;
53977;SDS011;39886;47.984;-1.586;2023-06-10T02:32:23;2.70;;;1.80;;
53977;SDS011;39886;47.984;-1.586;2023-06-10T02:34:49;2.20;;;2.00;;
53977;SDS011;39886;47.984;-1.586;2023-06-10T02:37:17;1.73;;;1.63;;
53977;SDS011;39886;47.984;-1.586;2023-06-10T02:39:43;2.10;;;1.90;;
53977;SDS011;39886;47.984;-1.586;2023-06-10T02:42:08;2.83;;;2.03;;
53977;SDS011;39886;47.984;-1.586;2023-06-10T02:44:35;2.15;;;2.00;;
53977;SDS011;39886;47.984;-1.586;2023-06-10T02:47:01;3.10;;;2.17;;
53977;SDS011;39886;47.984;-1.586;2023-06-10T02:49:27;2.20;;;2.00;;
53977;SDS011;39886;47.984;-1.586;2023-06-10T02:51:53;1.85;;;1.75;;
53977;SDS011;39886;47.984;-1.586;2023-06-10T02:54:22;2.05;;;1.90;;
53977;SDS011;39886;47.984;-1.586;2023-06-10T02:56:48;2.28;;;1.85;;
53977;SDS011;39886;47.984;-1.586;2023-06-10T02:59:14;1.95;;;1.75;;
53977;SDS011;39886;47.984;-1.586;2023-06-10T03:01:40;3.03;;;2.00;;
53977;SDS011;39886;47.984;-1.586;2023-06-10T03:04:06;2.20;;;2.00;;
53977;SDS011;39886;47.984;-1.586;2023-06-10T03:06:33;2.17;;;1.98;;
53977;SDS011;39886;47.984;-1.586;2023-06-10T03:09:01;2.13;;;1.92;;
53977;SDS011;39886;47.984;-1.586;2023-06-10T03:11:30;1.77;;;1.67;;
53977;SDS011;39886;47.984;-1.586;2023-06-10T03:13:56;2.10;;;1.90;;
53977;SDS011;39886;47.984;-1.586;2023-06-10T03:16:22;2.03;;;1.85;;
53977;SDS011;39886;47.984;-1.586;2023-06-10T03:18:50;2.83;;;2.08;;
53977;SDS011;39886;47.984;-1.586;2023-06-10T03:21:16;1.95;;;1.80;;
53977;SDS011;39886;47.984;-1.586;2023-06-10T03:23:42;2.25;;;1.92;;
53977;SDS011;39886;47.984;-1.586;2023-06-10T03:26:08;2.22;;;2.03;;
53977;SDS011;39886;47.984;-1.586;2023-06-10T03:28:35;1.98;;;1.85;;
53977;SDS011;39886;47.984;-1.586;2023-06-10T03:31:01;2.10;;;1.83;;
53977;SDS011;39886;47.984;-1.586;2023-06-10T03:33:26;2.00;;;1.80;;
53977;SDS011;39886;47.984;-1.586;2023-06-10T03:35:52;1.90;;;1.80;;
53977;SDS011;39886;47.984;-1.586;2023-06-10T03:38:18;2.58;;;1.63;;
53977;SDS011;39886;47.984;-1.586;2023-06-10T03:40:44;2.10;;;1.90;;
53977;SDS011;39886;47.984;-1.586;2023-06-10T03:43:10;2.00;;;1.80;;
53977;SDS011;39886;47.984;-1.586;2023-06-10T03:45:35;2.25;;;2.05;;
53977;SDS011;39886;47.984;-1.586;2023-06-10T03:48:01;2.17;;;1.80;;
53977;SDS011;39886;47.984;-1.586;2023-06-10T03:50:28;2.35;;;2.15;;
53977;SDS011;39886;47.984;-1.586;2023-06-10T03:52:54;1.92;;;1.83;;
53977;SDS011;39886;47.984;-1.586;2023-06-10T03:55:20;2.15;;;1.98;;
53977;SDS011;39886;47.984;-1.586;2023-06-10T03:57:47;2.10;;;1.90;;
53977;SDS011;39886;47.984;-1.586;2023-06-10T04:00:13;2.65;;;2.00;;
53977;SDS011;39886;47.984;-1.586;2023-06-10T04:02:40;1.90;;;1.80;;
53977;SDS011;39886;47.984;-1.586;2023-06-10T04:05:14;1.95;;;1.73;;
53977;SDS011;39886;47.984;-1.586;2023-06-10T04:07:41;2.03;;;1.85;;
53977;SDS011;39886;47.984;-1.586;2023-06-10T04:10:08;2.13;;;1.92;;
53977;SDS011;39886;47.984;-1.586;2023-06-10T04:12:35;2.03;;;1.75;;
53977;SDS011;39886;47.984;-1.586;2023-06-10T04:15:01;1.95;;;1.63;;
53977;SDS011;39886;47.984;-1.586;2023-06-10T04:17:27;2.00;;;1.80;;
53977;SDS011;39886;47.984;-1.586;2023-06-10T04:19:53;2.20;;;1.90;;
53977;SDS011;39886;47.984;-1.586;2023-06-10T04:22:19;2.13;;;1.85;;
53977;SDS011;39886;47.984;-1.586;2023-06-10T04:24:45;1.83;;;1.70;;
53977;SDS011;39886;47.984;-1.586;2023-06-10T04:27:11;2.33;;;1.88;;
53977;SDS011;39886;47.984;-1.586;2023-06-10T04:29:37;2.28;;;2.05;;
53977;SDS011;39886;47.984;-1.586;2023-06-10T04:32:03;2.60;;;1.70;;
53977;SDS011;39886;47.984;-1.586;2023-06-10T04:34:30;2.13;;;1.92;;
53977;SDS011;39886;47.984;-1.586;2023-06-10T04:36:56;2.45;;;1.90;;
53977;SDS011;39886;47.984;-1.586;2023-06-10T04:39:22;2.22;;;1.80;;
53977;SDS011;39886;47.984;-1.586;2023-06-10T04:41:48;2.25;;;1.88;;
53977;SDS011;39886;47.984;-1.586;2023-06-10T04:44:13;1.83;;;1.65;;
53977;SDS011;39886;47.984;-1.586;2023-06-10T04:46:39;2.42;;;2.22;;
53977;SDS011;39886;47.984;-1.586;2023-06-10T04:49:05;2.47;;;1.55;;
53977;SDS011;39886;47.984;-1.586;2023-06-10T04:51:31;1.98;;;1.88;;
53977;SDS011;39886;47.984;-1.586;2023-06-10T04:53:57;2.03;;;1.70;;
53977;SDS011;39886;47.984;-1.586;2023-06-10T04:56:23;2.25;;;1.90;;
53977;SDS011;39886;47.984;-1.586;2023-06-10T04:58:50;2.13;;;1.92;;
53977;SDS011;39886;47.984;-1.586;2023-06-10T05:01:15;1.95;;;1.73;;
53977;SDS011;39886;47.984;-1.586;2023-06-10T05:03:41;2.00;;;1.90;;
53977;SDS011;39886;47.984;-1.586;2023-06-10T05:06:07;2.42;;;2.00;;
53977;SDS011;39886;47.984;-1.586;2023-06-10T05:08:33;2.97;;;2.15;;
53977;SDS011;39886;47.984;-1.586;2023-06-10T05:10:59;2.13;;;1.92;;
53977;SDS011;39886;47.984;-1.586;2023-06-10T05:13:24;2.45;;;2.00;;
53977;SDS011;39886;47.984;-1.586;2023-06-10T05:15:50;3.17;;;1.77;;
53977;SDS011;39886;47.984;-1.586;2023-06-10T05:18:16;2.28;;;2.08;;
53977;SDS011;39886;47.984;-1.586;2023-06-10T05:20:42;2.47;;;2.25;;
53977;SDS011;39886;47.984;-1.586;2023-06-10T05:23:07;2.95;;;1.67;;
53977;SDS011;39886;47.984;-1.586;2023-06-10T05:25:33;1.90;;;1.80;;
53977;SDS011;39886;47.984;-1.586;2023-06-10T05:28:00;2.22;;;1.92;;
53977;SDS011;39886;47.984;-1.586;2023-06-10T05:30:25;2.00;;;1.90;;
53977;SDS011;39886;47.984;-1.586;2023-06-10T05:32:51;2.30;;;1.90;;
53977;SDS011;39886;47.984;-1.586;2023-06-10T05:35:18;2.00;;;1.80;;
53977;SDS011;39886;47.984;-1.586;2023-06-10T05:37:44;2.15;;;1.95;;
53977;SDS011;39886;47.984;-1.586;2023-06-10T05:40:10;1.80;;;1.70;;
53977;SDS011;39886;47.984;-1.586;2023-06-10T05:42:36;2.20;;;1.95;;
53977;SDS011;39886;47.984;-1.586;2023-06-10T05:45:02;2.03;;;1.92;;
53977;SDS011;39886;47.984;-1.586;2023-06-10T05:47:28;3.13;;;2.00;;
53977;SDS011;39886;47.984;-1.586;2023-06-10T05:49:54;2.38;;;1.98;;
53977;SDS011;39886;47.984;-1.586;2023-06-10T05:52:20;1.98;;;1.83;;
53977;SDS011;39886;47.984;-1.586;2023-06-10T05:54:46;2.55;;;2.03;;
53977;SDS011;39886;47.984;-1.586;2023-06-10T05:57:12;1.92;;;1.83;;
53977;SDS011;39886;47.984;-1.586;2023-06-10T05:59:37;2.10;;;2.00;;
53977;SDS011;39886;47.984;-1.586;2023-06-10T06:02:03;1.90;;;1.80;;
53977;SDS011;39886;47.984;-1.586;2023-06-10T06:04:30;2.08;;;1.85;;
53977;SDS011;39886;47.984;-1.586;2023-06-10T06:06:57;2.28;;;1.98;;
53977;SDS011;39886;47.984;-1.586;2023-06-10T06:09:22;1.90;;;1.80;;
53977;SDS011;39886;47.984;-1.586;2023-06-10T06:11:48;2.03;;;1.80;;
53977;SDS011;39886;47.984;-1.586;2023-06-10T06:14:14;1.90;;;1.80;;
53977;SDS011;39886;47.984;-1.586;2023-06-10T06:16:39;2.30;;;2.10;;
53977;SDS011;39886;47.984;-1.586;2023-06-10T06:19:05;1.88;;;1.77;;
53977;SDS011;39886;47.984;-1.586;2023-06-10T06:21:31;2.00;;;1.73;;
53977;SDS011;39886;47.984;-1.586;2023-06-10T06:23:57;2.00;;;1.90;;
53977;SDS011;39886;47.984;-1.586;2023-06-10T06:26:24;1.90;;;1.80;;
53977;SDS011;39886;47.984;-1.586;2023-06-10T06:28:50;2.25;;;2.00;;
53977;SDS011;39886;47.984;-1.586;2023-06-10T06:31:17;2.05;;;1.85;;
53977;SDS011;39886;47.984;-1.586;2023-06-10T06:33:42;2.88;;;1.98;;
53977;SDS011;39886;47.984;-1.586;2023-06-10T06:36:08;2.17;;;1.98;;
53977;SDS011;39886;47.984;-1.586;2023-06-10T06:38:34;1.95;;;1.75;;
53977;SDS011;39886;47.984;-1.586;2023-06-10T06:41:00;2.13;;;2.00;;
53977;SDS011;39886;47.984;-1.586;2023-06-10T06:43:31;1.88;;;1.77;;
53977;SDS011;39886;47.984;-1.586;2023-06-10T06:45:56;2.03;;;1.90;;
53977;SDS011;39886;47.984;-1.586;2023-06-10T06:48:23;2.13;;;1.92;;
53977;SDS011;39886;47.984;-1.586;2023-06-10T06:50:48;1.90;;;1.80;;
53977;SDS011;39886;47.984;-1.586;2023-06-10T06:53:14;2.20;;;2.00;;
53977;SDS011;39886;47.984;-1.586;2023-06-10T06:55:40;1.95;;;1.85;;
53977;SDS011;39886;47.984;-1.586;2023-06-10T06:58:06;2.00;;;1.90;;
53977;SDS011;39886;47.984;-1.586;2023-06-10T07:00:31;2.25;;;1.83;;
53977;SDS011;39886;47.984;-1.586;2023-06-10T07:02:57;2.25;;;2.00;;
53977;SDS011;39886;47.984;-1.586;2023-06-10T07:05:23;2.28;;;2.08;;
53977;SDS011;39886;47.984;-1.586;2023-06-10T07:07:52;2.22;;;2.03;;
53977;SDS011;39886;47.984;-1.586;2023-06-10T07:10:23;1.90;;;1.75;;
53977;SDS011;39886;47.984;-1.586;2023-06-10T07:12:49;2.05;;;1.90;;
53977;SDS011;39886;47.984;-1.586;2023-06-10T07:15:15;2.55;;;1.85;;
53977;SDS011;39886;47.984;-1.586;2023-06-10T07:17:41;2.13;;;1.92;;
53977;SDS011;39886;47.984;-1.586;2023-06-10T07:20:07;1.80;;;1.70;;
53977;SDS011;39886;47.984;-1.586;2023-06-10T07:22:33;2.42;;;1.98;;
53977;SDS011;39886;47.984;-1.586;2023-06-10T07:24:59;2.20;;;2.00;;
53977;SDS011;39886;47.984;-1.586;2023-06-10T07:27:25;1.92;;;1.80;;
53977;SDS011;39886;47.984;-1.586;2023-06-10T07:29:51;2.20;;;2.00;;
53977;SDS011;39886;47.984;-1.586;2023-06-10T07:32:17;2.10;;;1.88;;
53977;SDS011;39886;47.984;-1.586;2023-06-10T07:34:43;2.38;;;2.00;;
53977;SDS011;39886;47.984;-1.586;2023-06-10T07:37:08;2.20;;;2.00;;
53977;SDS011;39886;47.984;-1.586;2023-06-10T07:39:34;2.28;;;2.08;;
53977;SDS011;39886;47.984;-1.586;2023-06-10T07:42:00;2.30;;;2.10;;
53977;SDS011;39886;47.984;-1.586;2023-06-10T07:44:26;1.98;;;1.88;;
53977;SDS011;39886;47.984;-1.586;2023-06-10T07:46:52;1.83;;;1.73;;
53977;SDS011;39886;47.984;-1.586;2023-06-10T07:49:18;2.00;;;1.90;;
53977;SDS011;39886;47.984;-1.586;2023-06-10T07:51:43;2.75;;;2.10;;
53977;SDS011;39886;47.984;-1.586;2023-06-10T07:54:09;2.00;;;1.90;;
53977;SDS011;39886;47.984;-1.586;2023-06-10T07:56:38;2.72;;;2.15;;
53977;SDS011;39886;47.984;-1.586;2023-06-10T07:59:04;2.35;;;2.13;;
53977;SDS011;39886;47.984;-1.586;2023-06-10T08:01:30;1.80;;;1.70;;
53977;SDS011;39886;47.984;-1.586;2023-06-10T08:03:58;3.35;;;2.00;;
53977;SDS011;39886;47.984;-1.586;2023-06-10T08:06:23;2.28;;;2.03;;
53977;SDS011;39886;47.984;-1.586;2023-06-10T08:08:49;2.13;;;2.00;;
53977;SDS011;39886;47.984;-1.586;2023-06-10T08:11:15;2.30;;;2.10;;
53977;SDS011;39886;47.984;-1.586;2023-06-10T08:13:41;2.22;;;1.88;;
53977;SDS011;39886;47.984;-1.586;2023-06-10T08:16:06;2.40;;;2.20;;
53977;SDS011;39886;47.984;-1.586;2023-06-10T08:18:32;2.42;;;2.22;;
53977;SDS011;39886;47.984;-1.586;2023-06-10T08:20:59;2.40;;;2.20;;
53977;SDS011;39886;47.984;-1.586;2023-06-10T08:23:25;2.17;;;1.95;;
53977;SDS011;39886;47.984;-1.586;2023-06-10T08:25:51;2.33;;;2.08;;
53977;SDS011;39886;47.984;-1.586;2023-06-10T08:28:17;2.63;;;2.00;;
53977;SDS011;39886;47.984;-1.586;2023-06-10T08:30:43;1.95;;;1.85;;
53977;SDS011;39886;47.984;-1.586;2023-06-10T08:33:09;2.45;;;2.03;;
53977;SDS011;39886;47.984;-1.586;2023-06-10T08:35:35;2.42;;;2.10;;
53977;SDS011;39886;47.984;-1.586;2023-06-10T08:38:00;2.75;;;2.50;;
53977;SDS011;39886;47.984;-1.586;2023-06-10T08:40:26;2.42;;;2.00;;
53977;SDS011;39886;47.984;-1.586;2023-06-10T08:45:25;2.10;;;1.90;;
53977;SDS011;39886;47.984;-1.586;2023-06-10T08:47:56;2.22;;;2.00;;
53977;SDS011;39886;47.984;-1.586;2023-06-10T08:50:23;2.30;;;2.10;;
53977;SDS011;39886;47.984;-1.586;2023-06-10T08:52:50;2.35;;;2.15;;
53977;SDS011;39886;47.984;-1.586;2023-06-10T08:58:11;2.45;;;2.13;;
53977;SDS011;39886;47.984;-1.586;2023-06-10T09:00:38;2.33;;;2.13;;
53977;SDS011;39886;47.984;-1.586;2023-06-10T09:03:04;2.38;;;2.17;;
53977;SDS011;39886;47.984;-1.586;2023-06-10T09:05:34;2.50;;;2.30;;
53977;SDS011;39886;47.984;-1.586;2023-06-10T09:08:01;2.55;;;2.35;;
53977;SDS011;39886;47.984;-1.586;2023-06-10T09:10:27;2.70;;;2.10;;
53977;SDS011;39886;47.984;-1.586;2023-06-10T09:12:53;2.38;;;2.17;;
53977;SDS011;39886;47.984;-1.586;2023-06-10T09:15:19;2.65;;;2.08;;
53977;SDS011;39886;47.984;-1.586;2023-06-10T09:17:45;2.45;;;2.25;;
53977;SDS011;39886;47.984;-1.586;2023-06-10T09:20:11;2.63;;;2.33;;
53977;SDS011;39886;47.984;-1.586;2023-06-10T09:22:37;2.60;;;2.40;;
53977;SDS011;39886;47.984;-1.586;2023-06-10T09:25:07;2.00;;;1.90;;
53977;SDS011;39886;47.984;-1.586;2023-06-10T09:27:45;2.33;;;2.20;;
53977;SDS011;39886;47.984;-1.586;2023-06-10T09:30:28;2.50;;;2.30;;
53977;SDS011;39886;47.984;-1.586;2023-06-10T09:32:58;2.78;;;2.50;;
53977;SDS011;39886;47.984;-1.586;2023-06-10T09:35:26;2.20;;;2.00;;
53977;SDS011;39886;47.984;-1.586;2023-06-10T09:37:53;2.47;;;2.28;;
53977;SDS011;39886;47.984;-1.586;2023-06-10T09:40:20;2.50;;;2.30;;
53977;SDS011;39886;47.984;-1.586;2023-06-10T09:42:46;2.58;;;2.33;;
53977;SDS011;39886;47.984;-1.586;2023-06-10T09:45:21;2.42;;;2.22;;
53977;SDS011;39886;47.984;-1.586;2023-06-10T09:47:50;2.50;;;2.30;;
53977;SDS011;39886;47.984;-1.586;2023-06-10T09:50:17;2.50;;;2.30;;
53977;SDS011;39886;47.984;-1.586;2023-06-10T09:52:43;2.65;;;2.45;;
53977;SDS011;39886;47.984;-1.586;2023-06-10T09:55:11;2.40;;;2.20;;
53977;SDS011;39886;47.984;-1.586;2023-06-10T09:57:37;2.60;;;2.30;;
53977;SDS011;39886;47.984;-1.586;2023-06-10T10:00:10;2.50;;;2.30;;
53977;SDS011;39886;47.984;-1.586;2023-06-10T10:02:44;2.45;;;2.25;;
53977;SDS011;39886;47.984;-1.586;2023-06-10T10:05:14;2.15;;;2.00;;
53977;SDS011;39886;47.984;-1.586;2023-06-10T10:07:44;2.47;;;1.95;;
53977;SDS011;39886;47.984;-1.586;2023-06-10T10:10:10;2.42;;;2.22;;
53977;SDS011;39886;47.984;-1.586;2023-06-10T10:12:38;2.53;;;2.33;;
53977;SDS011;39886;47.984;-1.586;2023-06-10T10:15:08;2.17;;;1.98;;
53977;SDS011;39886;47.984;-1.586;2023-06-10T10:20:31;3.15;;;2.40;;
53977;SDS011;39886;47.984;-1.586;2023-06-10T10:22:59;2.55;;;2.35;;
53977;SDS011;39886;47.984;-1.586;2023-06-10T10:25:29;3.13;;;2.40;;
53977;SDS011;39886;47.984;-1.586;2023-06-10T10:28:06;2.03;;;1.90;;
53977;SDS011;39886;47.984;-1.586;2023-06-10T10:30:40;2.55;;;2.35;;
53977;SDS011;39886;47.984;-1.586;2023-06-10T10:33:09;2.33;;;2.13;;
53977;SDS011;39886;47.984;-1.586;2023-06-10T10:35:41;2.40;;;2.20;;
53977;SDS011;39886;47.984;-1.586;2023-06-10T10:38:08;2.40;;;2.20;;
53977;SDS011;39886;47.984;-1.586;2023-06-10T10:40:34;2.40;;;2.20;;
53977;SDS011;39886;47.984;-1.586;2023-06-10T10:43:01;3.25;;;2.42;;
53977;SDS011;39886;47.984;-1.586;2023-06-10T10:45:28;2.33;;;2.10;;
53977;SDS011;39886;47.984;-1.586;2023-06-10T10:47:54;2.53;;;2.33;;
53977;SDS011;39886;47.984;-1.586;2023-06-10T10:50:21;2.30;;;2.10;;
53977;SDS011;39886;47.984;-1.586;2023-06-10T10:53:01;2.30;;;2.10;;
53977;SDS011;39886;47.984;-1.586;2023-06-10T10:55:28;2.53;;;2.33;;
53977;SDS011;39886;47.984;-1.586;2023-06-10T10:58:04;2.58;;;2.38;;
53977;SDS011;39886;47.984;-1.586;2023-06-10T11:00:36;2.72;;;2.53;;
53977;SDS011;39886;47.984;-1.586;2023-06-10T11:03:08;2.50;;;2.30;;
53977;SDS011;39886;47.984;-1.586;2023-06-10T11:05:41;2.50;;;2.30;;
53977;SDS011;39886;47.984;-1.586;2023-06-10T11:08:12;3.20;;;2.40;;
53977;SDS011;39886;47.984;-1.586;2023-06-10T11:10:39;2.70;;;2.50;;
53977;SDS011;39886;47.984;-1.586;2023-06-10T11:13:07;2.70;;;2.50;;
53977;SDS011;39886;47.984;-1.586;2023-06-10T11:15:37;4.38;;;2.70;;
53977;SDS011;39886;47.984;-1.586;2023-06-10T11:18:14;2.67;;;2.47;;
53977;SDS011;39886;47.984;-1.586;2023-06-10T11:20:54;2.97;;;2.60;;
53977;SDS011;39886;47.984;-1.586;2023-06-10T11:31:27;2.50;;;2.30;;
53977;SDS011;39886;47.984;-1.586;2023-06-10T11:34:00;2.60;;;2.40;;
53977;SDS011;39886;47.984;-1.586;2023-06-10T11:36:32;2.53;;;2.33;;
53977;SDS011;39886;47.984;-1.586;2023-06-10T11:38:59;2.60;;;2.40;;
53977;SDS011;39886;47.984;-1.586;2023-06-10T11:41:27;2.47;;;2.25;;
53977;SDS011;39886;47.984;-1.586;2023-06-10T11:43:54;2.30;;;2.10;;
53977;SDS011;39886;47.984;-1.586;2023-06-10T11:46:23;2.40;;;2.20;;
53977;SDS011;39886;47.984;-1.586;2023-06-10T11:48:53;3.08;;;2.78;;
53977;SDS011;39886;47.984;-1.586;2023-06-10T11:51:20;2.83;;;2.53;;
53977;SDS011;39886;47.984;-1.586;2023-06-10T11:53:48;2.67;;;2.47;;
53977;SDS011;39886;47.984;-1.586;2023-06-10T11:56:21;2.80;;;2.40;;
53977;SDS011;39886;47.984;-1.586;2023-06-10T11:58:55;2.50;;;2.30;;
53977;SDS011;39886;47.984;-1.586;2023-06-10T12:01:25;2.60;;;2.20;;
53977;SDS011;39886;47.984;-1.586;2023-06-10T12:04:01;2.85;;;2.60;;
53977;SDS011;39886;47.984;-1.586;2023-06-10T12:06:40;2.45;;;2.25;;
53977;SDS011;39886;47.984;-1.586;2023-06-10T12:09:29;3.42;;;2.42;;
53977;SDS011;39886;47.984;-1.586;2023-06-10T12:11:57;2.50;;;2.30;;
53977;SDS011;39886;47.984;-1.586;2023-06-10T12:17:15;4.55;;;2.70;;
53977;SDS011;39886;47.984;-1.586;2023-06-10T12:19:40;2.33;;;2.13;;
53977;SDS011;39886;47.984;-1.586;2023-06-10T12:22:06;2.42;;;2.22;;
53977;SDS011;39886;47.984;-1.586;2023-06-10T12:24:32;2.67;;;2.47;;
53977;SDS011;39886;47.984;-1.586;2023-06-10T12:26:58;2.30;;;2.10;;
53977;SDS011;39886;47.984;-1.586;2023-06-10T12:29:24;2.65;;;2.40;;
53977;SDS011;39886;47.984;-1.586;2023-06-10T12:37:05;2.50;;;2.30;;
53977;SDS011;39886;47.984;-1.586;2023-06-10T12:39:38;2.47;;;2.10;;
53977;SDS011;39886;47.984;-1.586;2023-06-10T12:42:04;2.50;;;2.17;;
53977;SDS011;39886;47.984;-1.586;2023-06-10T12:44:34;2.50;;;2.30;;
53977;SDS011;39886;47.984;-1.586;2023-06-10T12:47:10;2.60;;;2.40;;
53977;SDS011;39886;47.984;-1.586;2023-06-10T12:49:39;2.50;;;2.30;;
53977;SDS011;39886;47.984;-1.586;2023-06-10T12:52:05;2.67;;;2.17;;
53977;SDS011;39886;47.984;-1.586;2023-06-10T12:54:32;2.70;;;2.40;;
53977;SDS011;39886;47.984;-1.586;2023-06-10T12:56:58;2.60;;;2.40;;
53977;SDS011;39886;47.984;-1.586;2023-06-10T12:59:24;2.47;;;2.28;;
53977;SDS011;39886;47.984;-1.586;2023-06-10T13:01:50;2.55;;;2.35;;
53977;SDS011;39886;47.984;-1.586;2023-06-10T13:04:16;2.33;;;2.13;;
53977;SDS011;39886;47.984;-1.586;2023-06-10T13:06:43;8.07;;;2.55;;
53977;SDS011;39886;47.984;-1.586;2023-06-10T13:09:09;4.75;;;2.65;;
53977;SDS011;39886;47.984;-1.586;2023-06-10T13:11:35;2.30;;;2.10;;
53977;SDS011;39886;47.984;-1.586;2023-06-10T13:14:01;2.67;;;2.47;;
53977;SDS011;39886;47.984;-1.586;2023-06-10T13:16:29;2.63;;;2.42;;
53977;SDS011;39886;47.984;-1.586;2023-06-10T13:18:55;2.70;;;2.50;;
53977;SDS011;39886;47.984;-1.586;2023-06-10T13:21:21;2.78;;;2.35;;
53977;SDS011;39886;47.984;-1.586;2023-06-10T13:23:47;2.63;;;2.20;;
53977;SDS011;39886;47.984;-1.586;2023-06-10T13:26:13;2.65;;;2.45;;
53977;SDS011;39886;47.984;-1.586;2023-06-10T13:28:41;2.53;;;2.33;;
53977;SDS011;39886;47.984;-1.586;2023-06-10T13:31:07;2.65;;;2.40;;
53977;SDS011;39886;47.984;-1.586;2023-06-10T13:33:33;2.45;;;2.25;;
53977;SDS011;39886;47.984;-1.586;2023-06-10T13:35:59;2.78;;;2.40;;
53977;SDS011;39886;47.984;-1.586;2023-06-10T13:38:24;2.28;;;2.10;;
53977;SDS011;39886;47.984;-1.586;2023-06-10T13:40:50;2.42;;;2.22;;
53977;SDS011;39886;47.984;-1.586;2023-06-10T13:43:16;2.70;;;2.50;;
53977;SDS011;39886;47.984;-1.586;2023-06-10T13:45:42;2.50;;;2.30;;
53977;SDS011;39886;47.984;-1.586;2023-06-10T13:48:07;2.70;;;2.50;;
53977;SDS011;39886;47.984;-1.586;2023-06-10T13:50:34;2.83;;;2.50;;
53977;SDS011;39886;47.984;-1.586;2023-06-10T13:52:59;2.88;;;2.67;;
53977;SDS011;39886;47.984;-1.586;2023-06-10T13:55:25;2.42;;;2.22;;
53977;SDS011;39886;47.984;-1.586;2023-06-10T13:57:51;2.72;;;2.45;;
53977;SDS011;39886;47.984;-1.586;2023-06-10T14:00:17;3.25;;;2.30;;
53977;SDS011;39886;47.984;-1.586;2023-06-10T14:02:43;2.70;;;2.50;;
53977;SDS011;39886;47.984;-1.586;2023-06-10T14:05:09;2.60;;;2.40;;
53977;SDS011;39886;47.984;-1.586;2023-06-10T14:07:35;3.67;;;2.25;;
53977;SDS011;39886;47.984;-1.586;2023-06-10T14:10:02;4.05;;;2.35;;
53977;SDS011;39886;47.984;-1.586;2023-06-10T14:12:28;2.60;;;2.40;;
53977;SDS011;39886;47.984;-1.586;2023-06-10T14:14:54;2.50;;;2.33;;
53977;SDS011;39886;47.984;-1.586;2023-06-10T14:17:19;2.90;;;2.40;;
53977;SDS011;39886;47.984;-1.586;2023-06-10T14:19:45;2.50;;;2.30;;
53977;SDS011;39886;47.984;-1.586;2023-06-10T14:22:11;2.53;;;2.33;;
53977;SDS011;39886;47.984;-1.586;2023-06-10T14:24:37;2.90;;;2.60;;
53977;SDS011;39886;47.984;-1.586;2023-06-10T14:27:03;2.70;;;2.50;;
53977;SDS011;39886;47.984;-1.586;2023-06-10T14:29:29;2.85;;;2.58;;
53977;SDS011;39886;47.984;-1.586;2023-06-10T14:31:56;2.67;;;2.47;;
53977;SDS011;39886;47.984;-1.586;2023-06-10T14:34:22;2.35;;;2.15;;
53977;SDS011;39886;47.984;-1.586;2023-06-10T14:36:53;2.67;;;2.47;;
53977;SDS011;39886;47.984;-1.586;2023-06-10T14:39:19;3.53;;;2.30;;
53977;SDS011;39886;47.984;-1.586;2023-06-10T14:41:45;2.97;;;2.70;;
53977;SDS011;39886;47.984;-1.586;2023-06-10T14:44:11;2.55;;;2.35;;
53977;SDS011;39886;47.984;-1.586;2023-06-10T14:46:36;2.72;;;2.47;;
53977;SDS011;39886;47.984;-1.586;2023-06-10T14:49:02;3.20;;;2.60;;
53977;SDS011;39886;47.984;-1.586;2023-06-10T14:51:28;2.60;;;2.40;;
53977;SDS011;39886;47.984;-1.586;2023-06-10T14:53:53;2.35;;;2.22;;
53977;SDS011;39886;47.984;-1.586;2023-06-10T14:56:19;2.78;;;2.28;;
53977;SDS011;39886;47.984;-1.586;2023-06-10T14:58:45;2.90;;;2.70;;
53977;SDS011;39886;47.984;-1.586;2023-06-10T15:01:10;3.22;;;2.40;;